sensor_id;sensor_type;location;lat;lon;timestamp;pressure;altitude;pressure_sealevel;temperature;humidity
49779;BME280;36217;60.232;24.776;2023-01-15T00:01:51;99793.53;;;2.35;100.00
49779;BME280;36217;60.232;24.776;2023-01-15T00:04:18;99799.94;;;2.47;100.00
49779;BME280;36217;60.232;24.776;2023-01-15T00:06:45;99799.29;;;2.46;100.00
49779;BME280;36217;60.232;24.776;2023-01-15T00:09:14;99799.29;;;2.45;100.00
49779;BME280;36217;60.232;24.776;2023-01-15T00:11:41;99796.63;;;2.32;100.00
49779;BME280;36217;60.232;24.776;2023-01-15T00:14:08;99791.97;;;2.50;100.00
49779;BME280;36217;60.232;24.776;2023-01-15T00:16:35;99790.75;;;2.56;100.00
49779;BME280;36217;60.232;24.776;2023-01-15T00:19:02;99794.54;;;2.32;100.00
49779;BME280;36217;60.232;24.776;2023-01-15T00:21:29;99790.66;;;2.65;100.00
49779;BME280;36217;60.232;24.776;2023-01-15T00:23:56;99794.38;;;2.50;100.00
49779;BME280;36217;60.232;24.776;2023-01-15T00:26:27;99793.57;;;2.27;100.00
49779;BME280;36217;60.232;24.776;2023-01-15T00:28:56;99793.19;;;2.27;100.00
49779;BME280;36217;60.232;24.776;2023-01-15T00:31:23;99792.48;;;2.21;100.00
49779;BME280;36217;60.232;24.776;2023-01-15T00:33:50;99788.38;;;2.30;100.00
49779;BME280;36217;60.232;24.776;2023-01-15T00:36:17;99794.19;;;2.38;100.00
49779;BME280;36217;60.232;24.776;2023-01-15T00:38:44;99786.23;;;2.25;100.00
49779;BME280;36217;60.232;24.776;2023-01-15T00:41:11;99786.68;;;2.34;100.00
49779;BME280;36217;60.232;24.776;2023-01-15T00:43:39;99779.93;;;2.54;100.00
49779;BME280;36217;60.232;24.776;2023-01-15T00:46:06;99779.99;;;2.33;100.00
49779;BME280;36217;60.232;24.776;2023-01-15T00:48:33;99777.52;;;2.29;100.00
49779;BME280;36217;60.232;24.776;2023-01-15T00:51:00;99779.73;;;2.36;100.00
49779;BME280;36217;60.232;24.776;2023-01-15T00:53:27;99776.27;;;2.22;100.00
49779;BME280;36217;60.232;24.776;2023-01-15T00:55:54;99771.08;;;2.44;100.00
49779;BME280;36217;60.232;24.776;2023-01-15T00:58:26;99769.76;;;2.28;100.00
49779;BME280;36217;60.232;24.776;2023-01-15T01:00:54;99770.63;;;2.34;100.00
49779;BME280;36217;60.232;24.776;2023-01-15T01:03:22;99767.72;;;2.27;100.00
49779;BME280;36217;60.232;24.776;2023-01-15T01:05:49;99767.33;;;2.23;100.00
49779;BME280;36217;60.232;24.776;2023-01-15T01:08:17;99766.75;;;2.23;100.00
49779;BME280;36217;60.232;24.776;2023-01-15T01:10:44;99767.81;;;2.43;100.00
49779;BME280;36217;60.232;24.776;2023-01-15T01:13:11;99761.93;;;2.44;100.00
49779;BME280;36217;60.232;24.776;2023-01-15T01:15:39;99753.22;;;2.28;100.00
49779;BME280;36217;60.232;24.776;2023-01-15T01:18:06;99750.22;;;2.47;100.00
49779;BME280;36217;60.232;24.776;2023-01-15T01:20:33;99745.97;;;2.17;100.00
49779;BME280;36217;60.232;24.776;2023-01-15T01:23:00;99748.69;;;2.36;100.00
49779;BME280;36217;60.232;24.776;2023-01-15T01:25:27;99743.10;;;2.25;100.00
49779;BME280;36217;60.232;24.776;2023-01-15T01:27:54;99741.16;;;2.19;100.00
49779;BME280;36217;60.232;24.776;2023-01-15T01:30:21;99733.79;;;2.24;100.00
49779;BME280;36217;60.232;24.776;2023-01-15T01:32:53;99738.03;;;2.30;100.00
49779;BME280;36217;60.232;24.776;2023-01-15T01:35:21;99738.01;;;2.20;100.00
49779;BME280;36217;60.232;24.776;2023-01-15T01:37:49;99737.01;;;2.30;100.00
49779;BME280;36217;60.232;24.776;2023-01-15T01:40:16;99734.81;;;2.26;100.00
49779;BME280;36217;60.232;24.776;2023-01-15T01:42:43;99733.67;;;2.41;100.00
49779;BME280;36217;60.232;24.776;2023-01-15T01:45:18;99727.17;;;2.32;100.00
49779;BME280;36217;60.232;24.776;2023-01-15T01:47:45;99716.66;;;2.21;100.00
49779;BME280;36217;60.232;24.776;2023-01-15T01:50:13;99727.56;;;2.39;100.00
49779;BME280;36217;60.232;24.776;2023-01-15T01:52:43;99718.71;;;2.29;100.00
49779;BME280;36217;60.232;24.776;2023-01-15T01:55:19;99722.64;;;2.14;100.00
49779;BME280;36217;60.232;24.776;2023-01-15T01:57:49;99714.51;;;2.39;100.00
49779;BME280;36217;60.232;24.776;2023-01-15T02:00:18;99707.60;;;2.12;100.00
49779;BME280;36217;60.232;24.776;2023-01-15T02:02:46;99700.89;;;2.03;100.00
49779;BME280;36217;60.232;24.776;2023-01-15T02:05:24;99705.47;;;2.18;100.00
49779;BME280;36217;60.232;24.776;2023-01-15T02:07:54;99705.73;;;2.17;100.00
49779;BME280;36217;60.232;24.776;2023-01-15T02:10:21;99705.21;;;2.23;100.00
49779;BME280;36217;60.232;24.776;2023-01-15T02:12:54;99704.69;;;2.50;100.00
49779;BME280;36217;60.232;24.776;2023-01-15T02:15:26;99702.76;;;2.26;100.00
49779;BME280;36217;60.232;24.776;2023-01-15T02:18:01;99695.57;;;2.64;100.00
49779;BME280;36217;60.232;24.776;2023-01-15T02:20:36;99690.75;;;2.38;100.00
49779;BME280;36217;60.232;24.776;2023-01-15T02:24:11;99688.40;;;2.17;100.00
49779;BME280;36217;60.232;24.776;2023-01-15T02:27:16;99690.60;;;2.19;100.00
49779;BME280;36217;60.232;24.776;2023-01-15T02:29:50;99685.50;;;2.58;100.00
49779;BME280;36217;60.232;24.776;2023-01-15T02:32:26;99683.70;;;2.23;100.00
49779;BME280;36217;60.232;24.776;2023-01-15T02:35:00;99677.37;;;2.15;100.00
49779;BME280;36217;60.232;24.776;2023-01-15T02:37:29;99674.87;;;2.21;100.00
49779;BME280;36217;60.232;24.776;2023-01-15T02:39:59;99670.27;;;2.66;100.00
49779;BME280;36217;60.232;24.776;2023-01-15T02:42:33;99671.92;;;2.38;100.00
49779;BME280;36217;60.232;24.776;2023-01-15T02:45:24;99665.77;;;2.19;100.00
49779;BME280;36217;60.232;24.776;2023-01-15T02:47:54;99667.19;;;2.29;100.00
49779;BME280;36217;60.232;24.776;2023-01-15T02:50:27;99654.85;;;2.18;100.00
49779;BME280;36217;60.232;24.776;2023-01-15T02:53:00;99656.45;;;2.34;100.00
49779;BME280;36217;60.232;24.776;2023-01-15T02:55:31;99655.19;;;2.31;100.00
49779;BME280;36217;60.232;24.776;2023-01-15T02:58:03;99647.37;;;2.20;100.00
49779;BME280;36217;60.232;24.776;2023-01-15T03:00:35;99642.44;;;2.41;100.00
49779;BME280;36217;60.232;24.776;2023-01-15T03:03:08;99638.06;;;2.20;100.00
49779;BME280;36217;60.232;24.776;2023-01-15T03:05:44;99640.04;;;2.22;100.00
49779;BME280;36217;60.232;24.776;2023-01-15T03:08:14;99640.35;;;2.15;100.00
49779;BME280;36217;60.232;24.776;2023-01-15T03:10:46;99629.45;;;2.24;100.00
49779;BME280;36217;60.232;24.776;2023-01-15T03:13:18;99626.29;;;2.19;100.00
49779;BME280;36217;60.232;24.776;2023-01-15T03:15:52;99623.08;;;2.24;100.00
49779;BME280;36217;60.232;24.776;2023-01-15T03:18:21;99622.07;;;2.31;100.00
49779;BME280;36217;60.232;24.776;2023-01-15T03:20:51;99633.73;;;2.31;100.00
49779;BME280;36217;60.232;24.776;2023-01-15T03:23:22;99633.99;;;2.41;100.00
49779;BME280;36217;60.232;24.776;2023-01-15T03:25:50;99624.43;;;2.33;100.00
49779;BME280;36217;60.232;24.776;2023-01-15T03:28:22;99617.84;;;2.27;100.00
49779;BME280;36217;60.232;24.776;2023-01-15T03:30:50;99618.42;;;2.39;100.00
49779;BME280;36217;60.232;24.776;2023-01-15T03:33:18;99610.62;;;2.30;100.00
49779;BME280;36217;60.232;24.776;2023-01-15T03:35:48;99600.77;;;2.25;100.00
49779;BME280;36217;60.232;24.776;2023-01-15T03:38:18;99592.04;;;2.18;100.00
49779;BME280;36217;60.232;24.776;2023-01-15T03:40:55;99588.78;;;2.16;100.00
49779;BME280;36217;60.232;24.776;2023-01-15T03:43:33;99578.56;;;2.13;100.00
49779;BME280;36217;60.232;24.776;2023-01-15T03:46:25;99561.76;;;2.21;100.00
49779;BME280;36217;60.232;24.776;2023-01-15T03:48:59;99554.75;;;2.19;100.00
49779;BME280;36217;60.232;24.776;2023-01-15T03:51:34;99551.22;;;2.44;100.00
49779;BME280;36217;60.232;24.776;2023-01-15T03:54:07;99544.48;;;2.28;100.00
49779;BME280;36217;60.232;24.776;2023-01-15T03:56:42;99547.53;;;2.20;100.00
49779;BME280;36217;60.232;24.776;2023-01-15T03:59:14;99536.29;;;2.29;100.00
49779;BME280;36217;60.232;24.776;2023-01-15T04:01:44;99531.69;;;2.07;100.00
49779;BME280;36217;60.232;24.776;2023-01-15T04:04:14;99524.09;;;2.45;100.00
49779;BME280;36217;60.232;24.776;2023-01-15T04:06:42;99515.96;;;2.60;100.00
49779;BME280;36217;60.232;24.776;2023-01-15T04:09:11;99507.03;;;2.10;100.00
49779;BME280;36217;60.232;24.776;2023-01-15T04:11:38;99505.69;;;2.36;100.00
49779;BME280;36217;60.232;24.776;2023-01-15T04:14:06;99496.76;;;2.02;100.00
49779;BME280;36217;60.232;24.776;2023-01-15T04:16:33;99488.57;;;2.35;100.00
49779;BME280;36217;60.232;24.776;2023-01-15T04:19:01;99485.25;;;1.92;100.00
49779;BME280;36217;60.232;24.776;2023-01-15T04:21:28;99483.16;;;2.18;100.00
49779;BME280;36217;60.232;24.776;2023-01-15T04:23:55;99486.22;;;2.14;100.00
49779;BME280;36217;60.232;24.776;2023-01-15T04:26:22;99480.06;;;2.56;100.00
49779;BME280;36217;60.232;24.776;2023-01-15T04:28:49;99469.84;;;2.14;100.00
49779;BME280;36217;60.232;24.776;2023-01-15T04:31:16;99469.69;;;2.03;100.00
49779;BME280;36217;60.232;24.776;2023-01-15T04:33:43;99465.94;;;2.28;100.00
49779;BME280;36217;60.232;24.776;2023-01-15T04:36:10;99449.62;;;2.13;100.00
49779;BME280;36217;60.232;24.776;2023-01-15T04:38:37;99447.27;;;2.30;100.00
49779;BME280;36217;60.232;24.776;2023-01-15T04:41:05;99436.52;;;2.13;100.00
49779;BME280;36217;60.232;24.776;2023-01-15T04:43:32;99442.02;;;2.67;100.00
49779;BME280;36217;60.232;24.776;2023-01-15T04:45:59;99427.85;;;2.14;100.00
49779;BME280;36217;60.232;24.776;2023-01-15T04:48:26;99430.63;;;2.33;100.00
49779;BME280;36217;60.232;24.776;2023-01-15T04:50:53;99418.76;;;2.11;100.00
49779;BME280;36217;60.232;24.776;2023-01-15T04:53:21;99416.66;;;2.21;100.00
49779;BME280;36217;60.232;24.776;2023-01-15T04:56:08;99412.87;;;2.16;100.00
49779;BME280;36217;60.232;24.776;2023-01-15T04:58:35;99404.08;;;2.22;100.00
49779;BME280;36217;60.232;24.776;2023-01-15T05:01:02;99394.02;;;2.48;100.00
49779;BME280;36217;60.232;24.776;2023-01-15T05:03:30;99380.98;;;2.42;100.00
49779;BME280;36217;60.232;24.776;2023-01-15T05:06:00;99366.43;;;2.15;100.00
49779;BME280;36217;60.232;24.776;2023-01-15T05:08:27;99352.48;;;2.08;100.00
49779;BME280;36217;60.232;24.776;2023-01-15T05:10:54;99344.99;;;2.33;100.00
49779;BME280;36217;60.232;24.776;2023-01-15T05:13:26;99346.91;;;2.35;100.00
49779;BME280;36217;60.232;24.776;2023-01-15T05:15:53;99344.98;;;2.37;100.00
49779;BME280;36217;60.232;24.776;2023-01-15T05:18:20;99340.27;;;1.87;100.00
49779;BME280;36217;60.232;24.776;2023-01-15T05:20:47;99335.22;;;1.97;100.00
49779;BME280;36217;60.232;24.776;2023-01-15T05:23:14;99329.53;;;2.31;100.00
49779;BME280;36217;60.232;24.776;2023-01-15T05:25:41;99326.54;;;2.06;100.00
49779;BME280;36217;60.232;24.776;2023-01-15T05:28:08;99307.38;;;2.11;100.00
49779;BME280;36217;60.232;24.776;2023-01-15T05:30:35;99307.90;;;2.17;100.00
49779;BME280;36217;60.232;24.776;2023-01-15T05:33:03;99302.56;;;2.37;100.00
49779;BME280;36217;60.232;24.776;2023-01-15T05:35:41;99287.61;;;2.44;100.00
49779;BME280;36217;60.232;24.776;2023-01-15T05:38:08;99280.81;;;2.05;100.00
49779;BME280;36217;60.232;24.776;2023-01-15T05:40:35;99273.41;;;2.33;100.00
49779;BME280;36217;60.232;24.776;2023-01-15T05:43:02;99267.58;;;2.10;100.00
49779;BME280;36217;60.232;24.776;2023-01-15T05:45:29;99267.53;;;2.09;100.00
49779;BME280;36217;60.232;24.776;2023-01-15T05:47:56;99272.37;;;2.20;100.00
49779;BME280;36217;60.232;24.776;2023-01-15T05:50:23;99265.25;;;2.43;100.00
49779;BME280;36217;60.232;24.776;2023-01-15T05:52:50;99245.20;;;2.38;100.00
49779;BME280;36217;60.232;24.776;2023-01-15T05:55:18;99237.34;;;1.96;100.00
49779;BME280;36217;60.232;24.776;2023-01-15T05:57:44;99251.59;;;1.88;100.00
49779;BME280;36217;60.232;24.776;2023-01-15T06:00:13;99233.93;;;2.15;100.00
49779;BME280;36217;60.232;24.776;2023-01-15T06:02:40;99226.53;;;2.00;100.00
49779;BME280;36217;60.232;24.776;2023-01-15T06:05:08;99206.81;;;2.10;100.00
49779;BME280;36217;60.232;24.776;2023-01-15T06:07:35;99205.35;;;2.01;100.00
49779;BME280;36217;60.232;24.776;2023-01-15T06:10:03;99205.45;;;2.03;100.00
49779;BME280;36217;60.232;24.776;2023-01-15T06:12:31;99195.68;;;1.95;100.00
49779;BME280;36217;60.232;24.776;2023-01-15T06:14:58;99179.62;;;2.22;100.00
49779;BME280;36217;60.232;24.776;2023-01-15T06:17:25;99170.52;;;2.26;100.00
49779;BME280;36217;60.232;24.776;2023-01-15T06:19:53;99169.56;;;2.02;100.00
49779;BME280;36217;60.232;24.776;2023-01-15T06:22:20;99155.15;;;1.92;100.00
49779;BME280;36217;60.232;24.776;2023-01-15T06:24:46;99150.34;;;2.13;100.00
49779;BME280;36217;60.232;24.776;2023-01-15T06:27:19;99146.95;;;2.26;100.00
49779;BME280;36217;60.232;24.776;2023-01-15T06:29:46;99128.52;;;2.00;100.00
49779;BME280;36217;60.232;24.776;2023-01-15T06:32:13;99117.65;;;1.80;100.00
49779;BME280;36217;60.232;24.776;2023-01-15T06:34:40;99109.35;;;2.07;100.00
49779;BME280;36217;60.232;24.776;2023-01-15T06:37:07;99094.20;;;2.11;100.00
49779;BME280;36217;60.232;24.776;2023-01-15T06:39:34;99096.45;;;1.86;100.00
49779;BME280;36217;60.232;24.776;2023-01-15T06:42:02;99086.76;;;1.99;100.00
49779;BME280;36217;60.232;24.776;2023-01-15T06:44:28;99078.35;;;2.25;100.00
49779;BME280;36217;60.232;24.776;2023-01-15T06:46:56;99068.34;;;2.38;100.00
49779;BME280;36217;60.232;24.776;2023-01-15T06:49:28;99058.99;;;2.03;100.00
49779;BME280;36217;60.232;24.776;2023-01-15T06:51:55;99049.47;;;1.81;100.00
49779;BME280;36217;60.232;24.776;2023-01-15T06:54:22;99042.02;;;1.85;100.00
49779;BME280;36217;60.232;24.776;2023-01-15T06:56:49;99029.48;;;2.01;100.00
49779;BME280;36217;60.232;24.776;2023-01-15T06:59:17;99018.31;;;2.22;100.00
49779;BME280;36217;60.232;24.776;2023-01-15T07:01:44;99022.01;;;1.75;100.00
49779;BME280;36217;60.232;24.776;2023-01-15T07:04:10;99010.45;;;1.88;100.00
49779;BME280;36217;60.232;24.776;2023-01-15T07:06:38;99009.42;;;2.14;100.00
49779;BME280;36217;60.232;24.776;2023-01-15T07:09:05;98996.21;;;1.81;100.00
49779;BME280;36217;60.232;24.776;2023-01-15T07:11:32;98996.93;;;1.77;100.00
49779;BME280;36217;60.232;24.776;2023-01-15T07:14:00;98994.61;;;1.92;100.00
49779;BME280;36217;60.232;24.776;2023-01-15T07:16:27;98981.34;;;1.83;100.00
49779;BME280;36217;60.232;24.776;2023-01-15T07:18:54;98980.71;;;1.80;100.00
49779;BME280;36217;60.232;24.776;2023-01-15T07:21:21;98967.48;;;1.97;100.00
49779;BME280;36217;60.232;24.776;2023-01-15T07:23:48;98973.11;;;1.81;100.00
49779;BME280;36217;60.232;24.776;2023-01-15T07:26:15;98972.27;;;2.10;100.00
49779;BME280;36217;60.232;24.776;2023-01-15T07:28:42;98968.48;;;2.09;100.00
49779;BME280;36217;60.232;24.776;2023-01-15T07:31:10;98957.92;;;1.83;100.00
49779;BME280;36217;60.232;24.776;2023-01-15T07:33:36;98955.10;;;2.11;100.00
49779;BME280;36217;60.232;24.776;2023-01-15T07:36:04;98938.63;;;1.89;100.00
49779;BME280;36217;60.232;24.776;2023-01-15T07:38:31;98932.94;;;1.87;100.00
49779;BME280;36217;60.232;24.776;2023-01-15T07:40:58;98924.02;;;1.81;100.00
49779;BME280;36217;60.232;24.776;2023-01-15T07:43:25;98927.95;;;1.77;100.00
49779;BME280;36217;60.232;24.776;2023-01-15T07:45:52;98923.07;;;1.80;100.00
49779;BME280;36217;60.232;24.776;2023-01-15T07:48:19;98920.47;;;1.86;100.00
49779;BME280;36217;60.232;24.776;2023-01-15T07:50:46;98911.48;;;2.08;100.00
49779;BME280;36217;60.232;24.776;2023-01-15T07:53:13;98903.50;;;1.88;100.00
49779;BME280;36217;60.232;24.776;2023-01-15T07:55:40;98898.12;;;1.85;100.00
49779;BME280;36217;60.232;24.776;2023-01-15T07:58:07;98900.44;;;1.81;100.00
49779;BME280;36217;60.232;24.776;2023-01-15T08:00:35;98892.22;;;1.79;100.00
49779;BME280;36217;60.232;24.776;2023-01-15T08:03:02;98881.97;;;1.76;100.00
49779;BME280;36217;60.232;24.776;2023-01-15T08:05:29;98886.63;;;1.80;100.00
49779;BME280;36217;60.232;24.776;2023-01-15T08:07:56;98877.91;;;1.89;100.00
49779;BME280;36217;60.232;24.776;2023-01-15T08:10:23;98882.09;;;1.74;100.00
49779;BME280;36217;60.232;24.776;2023-01-15T08:12:50;98877.18;;;1.55;100.00
49779;BME280;36217;60.232;24.776;2023-01-15T08:15:17;98875.18;;;1.60;100.00
49779;BME280;36217;60.232;24.776;2023-01-15T08:17:46;98876.59;;;2.10;100.00
49779;BME280;36217;60.232;24.776;2023-01-15T08:20:15;98866.83;;;1.69;100.00
49779;BME280;36217;60.232;24.776;2023-01-15T08:22:43;98858.15;;;1.81;100.00
49779;BME280;36217;60.232;24.776;2023-01-15T08:25:11;98860.31;;;1.99;100.00
49779;BME280;36217;60.232;24.776;2023-01-15T08:27:49;98852.03;;;1.75;100.00
49779;BME280;36217;60.232;24.776;2023-01-15T08:30:19;98846.04;;;1.76;100.00
49779;BME280;36217;60.232;24.776;2023-01-15T08:32:47;98849.18;;;1.71;100.00
49779;BME280;36217;60.232;24.776;2023-01-15T08:35:15;98833.89;;;1.86;100.00
49779;BME280;36217;60.232;24.776;2023-01-15T08:37:41;98833.72;;;1.79;100.00
49779;BME280;36217;60.232;24.776;2023-01-15T08:40:10;98829.87;;;1.71;100.00
49779;BME280;36217;60.232;24.776;2023-01-15T08:42:37;98829.46;;;1.77;100.00
49779;BME280;36217;60.232;24.776;2023-01-15T08:45:05;98821.03;;;1.83;100.00
49779;BME280;36217;60.232;24.776;2023-01-15T08:47:32;98818.00;;;1.87;100.00
49779;BME280;36217;60.232;24.776;2023-01-15T08:49:59;98814.70;;;1.92;100.00
49779;BME280;36217;60.232;24.776;2023-01-15T08:52:26;98811.56;;;1.90;100.00
49779;BME280;36217;60.232;24.776;2023-01-15T08:54:53;98801.85;;;1.93;100.00
49779;BME280;36217;60.232;24.776;2023-01-15T08:57:21;98795.82;;;1.71;100.00
49779;BME280;36217;60.232;24.776;2023-01-15T08:59:48;98787.36;;;1.73;100.00
49779;BME280;36217;60.232;24.776;2023-01-15T09:02:15;98783.89;;;1.57;100.00
49779;BME280;36217;60.232;24.776;2023-01-15T09:04:42;98778.09;;;1.69;100.00
49779;BME280;36217;60.232;24.776;2023-01-15T09:07:09;98782.41;;;1.62;100.00
49779;BME280;36217;60.232;24.776;2023-01-15T09:09:36;98773.19;;;2.10;100.00
49779;BME280;36217;60.232;24.776;2023-01-15T09:12:03;98762.08;;;2.16;100.00
49779;BME280;36217;60.232;24.776;2023-01-15T09:14:30;98754.93;;;1.70;100.00
49779;BME280;36217;60.232;24.776;2023-01-15T09:16:57;98758.59;;;1.75;100.00
49779;BME280;36217;60.232;24.776;2023-01-15T09:19:24;98735.74;;;1.85;100.00
49779;BME280;36217;60.232;24.776;2023-01-15T09:21:51;98735.39;;;1.74;100.00
49779;BME280;36217;60.232;24.776;2023-01-15T09:24:18;98739.74;;;1.50;100.00
49779;BME280;36217;60.232;24.776;2023-01-15T09:26:46;98733.07;;;1.69;100.00
49779;BME280;36217;60.232;24.776;2023-01-15T09:29:13;98724.41;;;2.00;100.00
49779;BME280;36217;60.232;24.776;2023-01-15T09:31:39;98719.00;;;1.79;100.00
49779;BME280;36217;60.232;24.776;2023-01-15T09:34:22;98713.02;;;1.62;100.00
49779;BME280;36217;60.232;24.776;2023-01-15T09:36:48;98709.72;;;1.83;100.00
49779;BME280;36217;60.232;24.776;2023-01-15T09:39:16;98702.73;;;1.74;100.00
49779;BME280;36217;60.232;24.776;2023-01-15T09:41:59;98693.13;;;1.59;100.00
49779;BME280;36217;60.232;24.776;2023-01-15T09:44:36;98697.65;;;2.03;100.00
49779;BME280;36217;60.232;24.776;2023-01-15T09:47:09;98695.03;;;1.88;100.00
49779;BME280;36217;60.232;24.776;2023-01-15T09:49:49;98686.48;;;1.97;100.00
49779;BME280;36217;60.232;24.776;2023-01-15T09:52:25;98670.06;;;1.53;100.00
49779;BME280;36217;60.232;24.776;2023-01-15T09:55:04;98677.51;;;1.86;100.00
49779;BME280;36217;60.232;24.776;2023-01-15T09:57:36;98673.27;;;1.76;100.00
49779;BME280;36217;60.232;24.776;2023-01-15T10:00:05;98677.89;;;1.86;100.00
49779;BME280;36217;60.232;24.776;2023-01-15T10:02:38;98670.03;;;1.73;100.00
49779;BME280;36217;60.232;24.776;2023-01-15T10:05:14;98663.71;;;1.81;100.00
49779;BME280;36217;60.232;24.776;2023-01-15T10:07:53;98657.32;;;1.65;100.00
49779;BME280;36217;60.232;24.776;2023-01-15T10:10:27;98657.61;;;1.75;100.00
49779;BME280;36217;60.232;24.776;2023-01-15T10:12:59;98652.72;;;1.50;100.00
49779;BME280;36217;60.232;24.776;2023-01-15T10:15:34;98645.35;;;1.71;100.00
49779;BME280;36217;60.232;24.776;2023-01-15T10:18:03;98635.96;;;1.69;100.00
49779;BME280;36217;60.232;24.776;2023-01-15T10:20:46;98635.07;;;1.73;100.00
49779;BME280;36217;60.232;24.776;2023-01-15T10:23:27;98624.48;;;1.62;100.00
49779;BME280;36217;60.232;24.776;2023-01-15T10:26:02;98620.28;;;1.77;100.00
49779;BME280;36217;60.232;24.776;2023-01-15T10:28:39;98615.00;;;1.76;100.00
49779;BME280;36217;60.232;24.776;2023-01-15T10:31:17;98613.02;;;1.86;100.00
49779;BME280;36217;60.232;24.776;2023-01-15T10:33:53;98605.74;;;1.66;100.00
49779;BME280;36217;60.232;24.776;2023-01-15T10:36:29;98609.70;;;1.55;100.00
49779;BME280;36217;60.232;24.776;2023-01-15T10:39:04;98607.66;;;2.00;100.00
49779;BME280;36217;60.232;24.776;2023-01-15T10:41:44;98610.25;;;2.16;100.00
49779;BME280;36217;60.232;24.776;2023-01-15T10:44:18;98605.13;;;2.08;100.00
49779;BME280;36217;60.232;24.776;2023-01-15T10:46:51;98613.86;;;1.72;100.00
49779;BME280;36217;60.232;24.776;2023-01-15T10:49:20;98605.81;;;1.53;100.00
49779;BME280;36217;60.232;24.776;2023-01-15T10:51:49;98610.44;;;1.72;100.00
49779;BME280;36217;60.232;24.776;2023-01-15T10:54:23;98600.75;;;1.90;100.00
49779;BME280;36217;60.232;24.776;2023-01-15T10:56:57;98591.41;;;2.06;100.00
49779;BME280;36217;60.232;24.776;2023-01-15T10:59:34;98591.39;;;1.80;100.00
49779;BME280;36217;60.232;24.776;2023-01-15T11:02:03;98595.33;;;1.82;100.00
49779;BME280;36217;60.232;24.776;2023-01-15T11:04:38;98588.10;;;2.06;100.00
49779;BME280;36217;60.232;24.776;2023-01-15T11:07:07;98591.18;;;1.92;100.00
49779;BME280;36217;60.232;24.776;2023-01-15T11:09:36;98587.30;;;1.83;100.00
49779;BME280;36217;60.232;24.776;2023-01-15T11:12:17;98583.35;;;2.21;100.00
49779;BME280;36217;60.232;24.776;2023-01-15T11:14:45;98577.58;;;2.08;100.00
49779;BME280;36217;60.232;24.776;2023-01-15T11:17:13;98576.34;;;2.52;100.00
49779;BME280;36217;60.232;24.776;2023-01-15T11:19:41;98572.48;;;2.45;100.00
49779;BME280;36217;60.232;24.776;2023-01-15T11:22:12;98576.10;;;2.51;100.00
49779;BME280;36217;60.232;24.776;2023-01-15T11:24:49;98567.63;;;3.66;100.00
49779;BME280;36217;60.232;24.776;2023-01-15T11:27:19;98567.98;;;3.71;100.00
49779;BME280;36217;60.232;24.776;2023-01-15T11:29:51;98561.21;;;3.02;100.00
49779;BME280;36217;60.232;24.776;2023-01-15T11:32:23;98570.40;;;2.82;100.00
49779;BME280;36217;60.232;24.776;2023-01-15T11:34:52;98570.06;;;2.55;100.00
49779;BME280;36217;60.232;24.776;2023-01-15T11:37:20;98574.58;;;2.25;100.00
49779;BME280;36217;60.232;24.776;2023-01-15T11:39:52;98574.48;;;2.28;100.00
49779;BME280;36217;60.232;24.776;2023-01-15T11:42:20;98575.96;;;2.28;100.00
49779;BME280;36217;60.232;24.776;2023-01-15T11:44:53;98574.26;;;1.93;100.00
49779;BME280;36217;60.232;24.776;2023-01-15T11:47:20;98568.23;;;1.77;100.00
49779;BME280;36217;60.232;24.776;2023-01-15T11:49:49;98567.54;;;2.19;100.00
49779;BME280;36217;60.232;24.776;2023-01-15T11:52:19;98577.19;;;1.89;100.00
49779;BME280;36217;60.232;24.776;2023-01-15T11:54:51;98579.12;;;1.89;100.00
49779;BME280;36217;60.232;24.776;2023-01-15T11:57:25;98579.16;;;2.23;100.00
49779;BME280;36217;60.232;24.776;2023-01-15T11:59:53;98571.04;;;1.68;100.00
49779;BME280;36217;60.232;24.776;2023-01-15T12:02:30;98570.62;;;1.95;100.00
49779;BME280;36217;60.232;24.776;2023-01-15T12:04:59;98560.52;;;1.61;100.00
49779;BME280;36217;60.232;24.776;2023-01-15T12:07:28;98557.50;;;1.74;100.00
49779;BME280;36217;60.232;24.776;2023-01-15T12:10:05;98577.27;;;1.87;100.00
49779;BME280;36217;60.232;24.776;2023-01-15T12:12:49;98590.48;;;1.75;100.00
49779;BME280;36217;60.232;24.776;2023-01-15T12:15:30;98584.98;;;1.97;100.00
49779;BME280;36217;60.232;24.776;2023-01-15T12:18:10;98584.08;;;1.84;100.00
49779;BME280;36217;60.232;24.776;2023-01-15T12:20:55;98573.81;;;1.74;100.00
49779;BME280;36217;60.232;24.776;2023-01-15T12:23:38;98576.84;;;1.87;100.00
49779;BME280;36217;60.232;24.776;2023-01-15T12:26:18;98563.92;;;1.85;100.00
49779;BME280;36217;60.232;24.776;2023-01-15T12:28:53;98564.11;;;2.21;100.00
49779;BME280;36217;60.232;24.776;2023-01-15T12:31:25;98574.53;;;1.93;100.00
49779;BME280;36217;60.232;24.776;2023-01-15T12:33:57;98561.81;;;1.93;100.00
49779;BME280;36217;60.232;24.776;2023-01-15T12:36:30;98568.37;;;2.11;100.00
49779;BME280;36217;60.232;24.776;2023-01-15T12:38:59;98563.35;;;1.99;100.00
49779;BME280;36217;60.232;24.776;2023-01-15T12:41:30;98564.72;;;2.19;100.00
49779;BME280;36217;60.232;24.776;2023-01-15T12:43:58;98561.31;;;1.85;100.00
49779;BME280;36217;60.232;24.776;2023-01-15T12:46:29;98563.73;;;1.99;100.00
49779;BME280;36217;60.232;24.776;2023-01-15T12:49:03;98569.86;;;1.79;100.00
49779;BME280;36217;60.232;24.776;2023-01-15T12:51:37;98566.00;;;1.64;100.00
49779;BME280;36217;60.232;24.776;2023-01-15T12:54:11;98569.90;;;2.02;100.00
49779;BME280;36217;60.232;24.776;2023-01-15T12:56:48;98577.54;;;1.98;100.00
49779;BME280;36217;60.232;24.776;2023-01-15T12:59:23;98574.71;;;1.70;100.00
49779;BME280;36217;60.232;24.776;2023-01-15T13:02:01;98570.43;;;1.92;100.00
49779;BME280;36217;60.232;24.776;2023-01-15T13:04:36;98575.43;;;1.95;100.00
49779;BME280;36217;60.232;24.776;2023-01-15T13:07:13;98574.18;;;1.86;100.00